Time;durP1;ratioP1;P1;durP2;ratioP2;P2;SDS_P1;SDS_P2;PMS_P1;PMS_P2;Temp;Humidity;BMP_temperature;BMP_pressure;BME280_temperature;BME280_humidity;BME280_pressure;Samples;Min_cycle;Max_cycle;Signal;HPM_P1;HPM_P2
2023/04/05 00:01:52;;;;;;;61.70;35.20;;;;;;;-3.88;73.42;99374.36;217971;1301;22573;-73
2023/04/05 00:06:56;;;;;;;62.50;32.60;;;;;;;-3.95;73.59;99370.35;218202;1283;22571;-73
2023/04/05 00:11:58;;;;;;;69.50;38.40;;;;;;;-4.01;73.41;99365.88;217685;1300;26064;-72
2023/04/05 00:17:00;;;;;;;63.20;34.70;;;;;;;-4.04;73.71;99364.36;218028;1299;22655;-72
2023/04/05 00:22:02;;;;;;;60.60;34.60;;;;;;;-4.09;73.99;99358.04;217971;1277;24109;-72
2023/04/05 00:27:04;;;;;;;75.50;40.30;;;;;;;-4.12;74.13;99350.48;218439;1299;22619;-73
2023/04/05 00:32:06;;;;;;;54.00;30.70;;;;;;;-4.15;74.39;99344.27;218179;1285;25645;-72
2023/04/05 00:37:10;;;;;;;65.10;33.90;;;;;;;-4.18;74.48;99341.70;218474;1301;25013;-73
2023/04/05 00:42:13;;;;;;;64.20;33.70;;;;;;;-4.22;74.50;99342.30;218637;1298;24392;-71
2023/04/05 00:47:16;;;;;;;67.70;33.30;;;;;;;-4.28;74.48;99343.93;218513;1294;26772;-73
2023/04/05 00:52:18;;;;;;;69.00;36.50;;;;;;;-4.32;74.54;99344.71;218095;1299;24301;-70
2023/04/05 00:57:20;;;;;;;69.90;33.00;;;;;;;-4.34;74.71;99345.30;217219;1296;22745;-72
2023/04/05 01:02:38;;;;;;;66.10;33.90;;;;;;;-4.31;75.02;99342.57;217802;1301;22661;-72
2023/04/05 01:07:52;;;;;;;61.00;32.40;;;;;;;-4.20;74.98;99336.69;218250;1287;24230;-72
2023/04/05 01:12:55;;;;;;;64.20;30.40;;;;;;;-4.08;74.92;99325.52;218332;1301;22815;-73
2023/04/05 01:18:00;;;;;;;57.60;30.50;;;;;;;-3.98;74.90;99314.95;218525;1290;24386;-73
2023/04/05 01:23:37;;;;;;;58.70;32.30;;;;;;;-3.87;74.57;99313.55;218039;1301;25606;-73
2023/04/05 01:28:51;;;;;;;54.50;31.10;;;;;;;-3.78;74.84;99309.08;218533;1292;22679;-72
2023/04/05 01:34:30;;;;;;;53.10;28.10;;;;;;;-3.67;75.05;99310.33;218093;1301;22727;-73
2023/04/05 01:39:34;;;;;;;50.30;26.50;;;;;;;-3.56;74.90;99296.09;218352;1301;22797;-73
2023/04/05 01:44:38;;;;;;;44.30;26.50;;;;;;;-3.50;74.65;99296.45;218425;1293;25356;-72
2023/04/05 01:49:41;;;;;;;41.60;23.80;;;;;;;-3.40;74.76;99295.23;217962;1301;22621;-73
2023/04/05 01:54:44;;;;;;;44.00;25.60;;;;;;;-3.32;74.75;99297.84;218275;1284;23076;-73
2023/04/05 01:59:46;;;;;;;49.50;27.40;;;;;;;-3.30;74.28;99296.34;218155;1301;22750;-73
2023/04/05 02:04:48;;;;;;;42.30;24.80;;;;;;;-3.27;74.52;99294.27;218134;1301;22577;-73
2023/04/05 02:09:50;;;;;;;39.10;24.20;;;;;;;-3.21;74.51;99288.08;218196;1280;22817;-73
2023/04/05 02:14:52;;;;;;;45.50;26.20;;;;;;;-3.15;74.31;99292.70;218190;1301;23037;-72
2023/04/05 02:20:01;;;;;;;45.90;25.50;;;;;;;-3.08;74.36;99289.34;218245;1301;25704;-73
2023/04/05 02:25:03;;;;;;;44.80;26.80;;;;;;;-3.04;74.22;99294.97;218150;1299;23995;-73
2023/04/05 02:30:06;;;;;;;50.30;29.20;;;;;;;-3.08;74.03;99292.63;218404;1295;22786;-72
2023/04/05 02:35:09;;;;;;;54.60;30.10;;;;;;;-3.17;73.95;99295.27;218144;1301;22660;-73
2023/04/05 02:40:14;;;;;;;49.60;29.30;;;;;;;-3.31;73.96;99286.04;218601;1300;23440;-73
2023/04/05 02:45:16;;;;;;;61.00;33.30;;;;;;;-3.43;74.32;99277.84;218264;1301;22572;-73
2023/04/05 02:50:19;;;;;;;45.40;26.50;;;;;;;-3.53;74.35;99275.30;218259;1301;22660;-72
2023/04/05 02:55:21;;;;;;;70.70;33.90;;;;;;;-3.63;74.33;99273.95;217852;1301;22798;-73
2023/04/05 03:00:26;;;;;;;61.50;33.30;;;;;;;-3.73;74.49;99274.73;218535;1298;26795;-73
2023/04/05 03:05:29;;;;;;;62.70;33.40;;;;;;;-3.82;74.88;99277.08;218273;1301;22566;-72
2023/04/05 03:10:34;;;;;;;63.70;33.00;;;;;;;-3.87;75.03;99275.84;217913;1292;22611;-73
2023/04/05 03:15:46;;;;;;;69.50;36.40;;;;;;;-3.92;75.22;99267.33;218488;1280;23114;-73
2023/04/05 03:20:55;;;;;;;89.40;48.20;;;;;;;-3.95;75.55;99261.15;217973;1301;22803;-71
2023/04/05 03:26:00;;;;;;;86.90;47.00;;;;;;;-4.02;75.35;99266.01;216830;1296;24201;-72
2023/04/05 03:31:04;;;;;;;74.80;39.80;;;;;;;-4.07;75.49;99264.77;216647;1301;25539;-73
2023/04/05 03:36:07;;;;;;;69.30;40.60;;;;;;;-4.12;75.59;99262.61;217227;1300;23624;-73
2023/04/05 03:41:11;;;;;;;67.20;38.40;;;;;;;-4.15;75.79;99266.89;218214;1295;22728;-72
2023/04/05 03:46:13;;;;;;;55.60;31.50;;;;;;;-4.16;75.86;99261.97;218339;1296;22632;-73
2023/04/05 03:51:17;;;;;;;48.50;28.10;;;;;;;-4.14;76.08;99265.25;218196;1301;24259;-73
2023/04/05 03:56:24;;;;;;;46.10;26.70;;;;;;;-4.09;76.18;99258.47;218217;1301;22600;-71
2023/04/05 04:01:26;;;;;;;47.80;28.90;;;;;;;-4.03;76.12;99256.27;218220;1300;22642;-72
2023/04/05 04:06:29;;;;;;;50.10;28.30;;;;;;;-3.97;76.08;99255.56;218456;1298;22607;-72
2023/04/05 04:11:32;;;;;;;48.50;28.00;;;;;;;-3.92;76.12;99253.58;218018;1278;22938;-73
2023/04/05 04:16:37;;;;;;;60.40;32.90;;;;;;;-3.91;76.19;99251.09;218161;1299;25592;-72
2023/04/05 04:21:50;;;;;;;100.10;54.40;;;;;;;-3.93;76.39;99253.09;218453;1286;22631;-72
2023/04/05 04:26:58;;;;;;;134.80;76.90;;;;;;;-4.00;76.25;99257.09;218032;1301;22682;-73
2023/04/05 04:32:25;;;;;;;174.50;94.60;;;;;;;-4.03;76.24;99259.73;218212;1301;22691;-73
2023/04/05 04:37:54;;;;;;;263.20;140.50;;;;;;;-4.03;76.33;99262.46;218273;1286;22726;-74
2023/04/05 04:43:26;;;;;;;237.40;124.50;;;;;;;-4.00;76.77;99262.79;218159;1301;22911;-73
2023/04/05 04:48:51;;;;;;;228.80;130.70;;;;;;;-3.97;76.64;99258.12;218294;1301;22999;-72
2023/04/05 04:54:06;;;;;;;237.90;135.00;;;;;;;-3.94;76.70;99257.96;218459;1301;22617;-73
2023/04/05 04:59:08;;;;;;;216.90;131.30;;;;;;;-3.94;76.57;99255.89;218015;1296;24257;-73
2023/04/05 05:04:11;;;;;;;187.20;116.60;;;;;;;-3.93;76.56;99258.46;218173;1296;22688;-72
2023/04/05 05:09:15;;;;;;;185.40;110.10;;;;;;;-3.88;76.86;99265.09;218427;1290;22737;-73
2023/04/05 05:14:24;;;;;;;121.40;67.10;;;;;;;-3.76;77.09;99266.47;218186;1296;22609;-72
2023/04/05 05:19:27;;;;;;;112.70;61.00;;;;;;;-3.64;77.23;99271.29;218021;1299;24609;-72
2023/04/05 05:24:29;;;;;;;102.80;56.90;;;;;;;-3.54;76.99;99266.23;218002;1301;24988;-73
2023/04/05 05:29:32;;;;;;;84.60;50.10;;;;;;;-3.47;77.26;99266.15;218090;1301;22661;-73
2023/04/05 05:34:34;;;;;;;99.50;56.40;;;;;;;-3.40;77.04;99272.64;218369;1296;22792;-72
2023/04/05 05:39:36;;;;;;;81.70;48.80;;;;;;;-3.33;77.04;99279.83;218375;1299;22870;-72
2023/04/05 05:44:38;;;;;;;65.60;39.60;;;;;;;-3.24;77.17;99280.49;218085;1278;22876;-72
2023/04/05 05:49:41;;;;;;;63.20;35.00;;;;;;;-3.07;77.12;99277.05;218534;1280;25810;-73
2023/04/05 05:54:43;;;;;;;66.30;37.70;;;;;;;-2.85;77.48;99279.71;218249;1280;23851;-72
2023/04/05 05:59:45;;;;;;;58.20;34.50;;;;;;;-2.67;77.15;99281.41;216213;1283;139534;-72
2023/04/05 06:04:48;;;;;;;51.90;31.60;;;;;;;-2.55;77.15;99284.97;216018;1286;139046;-72
2023/04/05 06:09:50;;;;;;;50.40;32.90;;;;;;;-2.37;76.97;99283.20;216003;1294;139318;-72
2023/04/05 06:14:53;;;;;;;54.20;32.10;;;;;;;-2.18;76.87;99286.98;217966;1283;139856;-72
2023/04/05 06:19:55;;;;;;;49.20;28.80;;;;;;;-1.99;76.76;99283.75;218194;1286;139884;-74
2023/04/05 06:24:59;;;;;;;42.90;26.00;;;;;;;-1.80;76.49;99282.15;218176;1286;140886;-73
2023/04/05 06:30:02;;;;;;;38.20;22.70;;;;;;;-1.59;76.08;99277.73;218074;1282;22918;-72
2023/04/05 06:35:04;;;;;;;37.50;23.30;;;;;;;-1.41;76.01;99273.23;218166;1283;140136;-74
2023/04/05 06:40:07;;;;;;;39.10;21.80;;;;;;;-1.20;75.70;99277.02;218450;1279;140023;-73
2023/04/05 06:45:10;;;;;;;32.80;20.60;;;;;;;-0.94;75.77;99273.71;217936;1279;139840;-73
2023/04/05 06:50:12;;;;;;;34.60;20.70;;;;;;;-0.62;75.71;99273.92;218269;1280;139594;-73
2023/04/05 06:55:15;;;;;;;28.90;18.40;;;;;;;-0.30;75.49;99272.39;217864;1283;139077;-74
2023/04/05 07:00:18;;;;;;;27.70;17.80;;;;;;;-0.06;75.21;99275.88;218575;1285;22589;-76
2023/04/05 07:05:20;;;;;;;28.40;17.80;;;;;;;0.25;74.71;99273.66;218968;1279;139274;-74
2023/04/05 07:10:23;;;;;;;26.60;15.80;;;;;;;0.70;74.50;99274.84;217931;1278;138507;-74
2023/04/05 07:15:29;;;;;;;26.90;16.10;;;;;;;1.18;74.35;99274.34;218226;1291;139735;-76
2023/04/05 07:20:32;;;;;;;25.10;15.40;;;;;;;1.67;73.49;99272.98;219617;1296;139382;-76
2023/04/05 07:25:38;;;;;;;22.70;14.50;;;;;;;2.14;73.09;99277.00;218390;1286;138890;-79
2023/04/05 07:30:51;;;;;;;25.80;15.50;;;;;;;2.46;71.90;99278.41;218144;1286;22614;-81
2023/04/05 07:37:11;;;;;;;25.70;14.10;;;;;;;2.75;71.51;99278.98;218551;1280;24400;-81
2023/04/05 07:42:14;;;;;;;24.00;14.10;;;;;;;2.89;70.64;99272.09;218831;1293;25369;-82
2023/04/05 07:47:52;;;;;;;28.10;15.60;;;;;;;3.06;70.58;99270.11;218309;1296;138849;-81
2023/04/05 07:53:08;;;;;;;12.90;8.20;;;;;;;3.31;69.75;99272.76;218293;1295;138713;-81
2023/04/05 07:58:22;;;;;;;;;;;;;;;;;;;;;
2023/04/05 08:03:25;;;;;;;11.80;7.60;;;;;;;3.49;66.15;99268.73;219265;1295;139526;-81
2023/04/05 08:08:28;;;;;;;14.70;8.60;;;;;;;3.68;65.69;99265.15;219112;1295;138509;-80
2023/04/05 08:13:49;;;;;;;;;;;;;;;;;;;;;
2023/04/05 08:18:56;;;;;;;5.40;3.10;;;;;;;4.53;63.42;99269.02;217936;1288;22546;-78
2023/04/05 08:24:09;;;;;;;2.70;1.90;;;;;;;4.83;61.30;99266.80;218109;1293;24234;-78
2023/04/05 08:29:12;;;;;;;3.80;1.60;;;;;;;4.97;59.62;99260.29;217933;1280;137654;-78
2023/04/05 08:34:14;;;;;;;1.80;1.30;;;;;;;5.01;57.86;99260.27;218050;1296;137843;-79
2023/04/05 08:39:17;;;;;;;3.40;2.10;;;;;;;4.94;57.31;99255.44;217486;1280;137964;-79
2023/04/05 08:44:22;;;;;;;4.30;2.80;;;;;;;5.02;57.45;99254.54;217722;1291;137982;-79
2023/04/05 08:49:24;;;;;;;2.60;2.00;;;;;;;5.15;57.02;99258.79;218290;1289;137794;-77
2023/04/05 08:54:26;;;;;;;6.90;3.20;;;;;;;5.31;56.63;99255.31;218469;1295;24962;-77
2023/04/05 08:59:31;;;;;;;6.10;3.20;;;;;;;5.48;56.44;99256.42;217870;1296;137684;-78
2023/04/05 09:04:39;;;;;;;5.00;3.00;;;;;;;5.50;55.34;99247.34;217834;1296;138037;-78
2023/04/05 09:09:45;;;;;;;6.10;3.20;;;;;;;5.59;55.98;99247.98;217940;1296;137834;-79
2023/04/05 09:14:49;;;;;;;5.90;3.10;;;;;;;5.69;55.05;99247.69;217611;1296;137990;-77
2023/04/05 09:20:21;;;;;;;6.60;3.20;;;;;;;5.81;55.03;99252.19;218040;1296;137853;-78
2023/04/05 09:25:37;;;;;;;5.00;3.20;;;;;;;5.85;54.98;99249.16;217390;1296;138364;-78
2023/04/05 09:30:45;;;;;;;6.90;3.00;;;;;;;5.88;53.80;99250.46;217649;1302;22543;-77
2023/04/05 09:35:50;;;;;;;3.90;2.30;;;;;;;5.68;53.80;99249.02;217554;1296;137695;-77
2023/04/05 09:40:55;;;;;;;3.60;2.70;;;;;;;5.67;54.19;99240.19;217345;1304;137786;-78
2023/04/05 09:46:06;;;;;;;4.20;2.80;;;;;;;5.80;53.54;99242.02;217288;1304;137835;-78
2023/04/05 09:51:09;;;;;;;5.60;3.20;;;;;;;5.94;52.82;99232.77;217683;1303;138309;-78
2023/04/05 09:56:14;;;;;;;4.80;2.90;;;;;;;6.09;52.89;99234.89;217432;1299;137826;-78
2023/04/05 10:01:17;;;;;;;4.30;2.70;;;;;;;6.11;51.94;99234.85;218276;1287;137807;-78
2023/04/05 10:06:20;;;;;;;4.00;2.60;;;;;;;6.01;51.32;99232.62;218070;1293;25435;-77
2023/04/05 10:11:23;;;;;;;5.30;2.40;;;;;;;6.10;52.12;99224.27;218286;1299;137745;-77
2023/04/05 10:16:28;;;;;;;3.60;2.20;;;;;;;6.45;52.26;99222.34;218058;1301;137798;-77
2023/04/05 10:21:35;;;;;;;3.70;2.60;;;;;;;6.54;50.85;99225.65;218104;1299;195559;-77
2023/04/05 10:26:51;;;;;;;4.40;2.50;;;;;;;6.66;51.58;99221.45;220031;1295;137923;-77
2023/04/05 10:32:02;;;;;;;4.60;2.70;;;;;;;6.76;51.61;99213.18;218585;1302;138423;-75
2023/04/05 10:37:06;;;;;;;5.80;2.90;;;;;;;6.76;50.96;99207.08;217853;1296;137697;-75
2023/04/05 10:42:27;;;;;;;4.90;3.30;;;;;;;6.71;51.12;99203.98;218010;1286;22549;-77
2023/04/05 10:47:37;;;;;;;5.10;2.80;;;;;;;6.65;51.17;99205.09;218527;1283;137637;-76
2023/04/05 10:52:41;;;;;;;3.00;2.30;;;;;;;6.50;50.54;99202.80;217901;1292;137768;-75
2023/04/05 10:57:45;;;;;;;4.80;2.60;;;;;;;6.35;50.50;99200.65;217746;1299;138180;-77
2023/04/05 11:02:48;;;;;;;4.40;2.50;;;;;;;6.52;50.73;99196.65;218057;1293;138517;-77
2023/04/05 11:07:51;;;;;;;3.20;2.40;;;;;;;6.62;50.11;99194.77;218022;1296;137968;-77
2023/04/05 11:12:54;;;;;;;4.20;2.60;;;;;;;6.76;50.37;99193.23;218175;1302;22605;-77
2023/04/05 11:18:19;;;;;;;5.60;2.80;;;;;;;6.72;49.75;99186.06;218590;1293;22767;-76
2023/04/05 11:23:28;;;;;;;4.10;2.70;;;;;;;6.58;49.68;99192.20;218298;1295;138112;-76
2023/04/05 11:28:39;;;;;;;3.20;2.50;;;;;;;6.58;50.61;99186.08;217835;1296;137867;-77
2023/04/05 11:33:45;;;;;;;4.50;2.60;;;;;;;6.86;50.64;99184.88;217898;1280;137824;-77
2023/04/05 11:39:16;;;;;;;3.40;2.40;;;;;;;6.85;50.07;99185.23;218278;1280;137992;-76
2023/04/05 11:44:21;;;;;;;3.40;2.10;;;;;;;6.95;49.95;99183.77;218299;1294;137867;-76
2023/04/05 11:49:31;;;;;;;3.20;2.50;;;;;;;7.16;49.51;99187.86;217976;1299;138016;-76
2023/04/05 11:54:34;;;;;;;4.50;2.60;;;;;;;7.42;49.67;99186.05;218314;1296;22568;-76
2023/04/05 11:59:37;;;;;;;3.50;2.20;;;;;;;7.44;49.51;99186.78;218415;1301;138253;-76
2023/04/05 12:04:40;;;;;;;4.90;2.60;;;;;;;7.17;48.82;99192.00;218094;1293;137809;-75
2023/04/05 12:10:12;;;;;;;4.00;2.50;;;;;;;6.90;48.82;99186.69;218210;1301;137837;-76
2023/04/05 12:15:19;;;;;;;6.10;2.60;;;;;;;6.71;49.08;99186.50;218433;1296;137992;-76
2023/04/05 12:20:23;;;;;;;4.40;2.40;;;;;;;6.51;49.28;99185.79;218248;1296;137855;-76
2023/04/05 12:25:27;;;;;;;3.10;2.40;;;;;;;6.45;50.00;99185.41;218200;1301;137955;-77
2023/04/05 12:30:35;;;;;;;3.80;2.10;;;;;;;6.49;50.36;99180.39;218257;1296;22705;-77
2023/04/05 12:35:41;;;;;;;2.80;2.00;;;;;;;6.62;49.84;99171.27;218540;1296;137803;-77
2023/04/05 12:40:45;;;;;;;3.10;2.10;;;;;;;6.77;49.19;99166.65;218437;1293;137631;-77
2023/04/05 12:45:49;;;;;;;3.40;2.10;;;;;;;6.88;48.45;99164.48;217938;1299;137831;-77
2023/04/05 12:50:53;;;;;;;2.20;1.60;;;;;;;6.94;48.36;99161.57;218077;1301;137854;-77
2023/04/05 12:55:57;;;;;;;4.80;2.50;;;;;;;7.02;47.81;99158.11;218276;1280;137792;-77
2023/04/05 13:01:03;;;;;;;2.90;2.00;;;;;;;6.80;47.99;99161.77;217923;1293;138309;-77
2023/04/05 13:06:06;;;;;;;2.50;1.70;;;;;;;6.50;48.27;99160.77;218192;1295;25268;-77
2023/04/05 13:11:08;;;;;;;2.30;1.80;;;;;;;6.46;48.54;99161.46;218223;1279;137701;-77
2023/04/05 13:16:10;;;;;;;4.40;2.10;;;;;;;6.61;48.49;99154.23;218077;1280;137832;-76
2023/04/05 13:21:13;;;;;;;3.30;2.00;;;;;;;6.83;48.83;99156.24;218023;1283;137992;-76
2023/04/05 13:26:16;;;;;;;2.90;1.70;;;;;;;6.85;48.14;99156.22;218004;1298;137793;-76
2023/04/05 13:31:18;;;;;;;2.00;1.40;;;;;;;6.77;47.97;99153.52;218257;1295;137817;-76
2023/04/05 13:36:21;;;;;;;4.70;1.50;;;;;;;6.82;48.16;99151.84;218035;1282;22591;-77
2023/04/05 13:41:24;;;;;;;1.80;1.60;;;;;;;6.83;48.43;99149.84;217915;1301;137715;-76
2023/04/05 13:47:20;;;;;;;;;;;;;;;;;;;;;
2023/04/05 13:53:18;;;;;;;5.60;1.90;;;;;;;6.57;48.39;99150.07;219594;1296;137687;-78
2023/04/05 13:59:09;;;;;;;3.10;1.90;;;;;;;6.55;48.87;99148.57;219100;1295;22608;-78
2023/04/05 14:04:53;;;;;;;3.70;2.20;;;;;;;6.49;48.80;99151.46;218795;1302;137543;-79
2023/04/05 14:10:25;;;;;;;2.80;1.40;;;;;;;6.46;48.75;99153.49;218862;1296;25315;-78
2023/04/05 14:15:38;;;;;;;2.70;1.20;;;;;;;6.50;48.65;99147.73;217779;1296;22490;-78
2023/04/05 14:20:41;;;;;;;3.70;1.60;;;;;;;6.47;47.78;99146.61;217868;1292;26064;-78
2023/04/05 14:25:49;;;;;;;1.70;1.10;;;;;;;6.39;48.29;99145.14;217987;1295;25384;-77
2023/04/05 14:30:58;;;;;;;3.10;2.10;;;;;;;6.26;48.60;99150.60;218134;1302;22542;-78
2023/04/05 14:36:01;;;;;;;3.50;2.20;;;;;;;6.10;48.65;99149.56;218282;1302;22619;-78
2023/04/05 14:41:07;;;;;;;5.20;2.70;;;;;;;6.02;48.81;99153.02;218049;1299;22556;-79
2023/04/05 14:46:29;;;;;;;4.20;2.70;;;;;;;5.95;48.59;99152.98;218168;1299;22692;-78
2023/04/05 14:51:44;;;;;;;4.60;2.30;;;;;;;5.84;48.93;99155.43;217951;1299;23110;-77
2023/04/05 14:56:47;;;;;;;3.90;1.80;;;;;;;5.78;49.22;99153.72;218202;1302;22559;-78
2023/04/05 15:01:53;;;;;;;2.20;1.60;;;;;;;5.76;49.01;99154.31;218009;1296;25407;-78
2023/04/05 15:06:55;;;;;;;3.20;2.10;;;;;;;5.94;49.54;99153.04;218118;1296;22552;-79
2023/04/05 15:12:01;;;;;;;3.30;2.00;;;;;;;6.21;48.99;99144.50;218057;1302;22552;-77
2023/04/05 15:17:39;;;;;;;4.10;2.10;;;;;;;6.40;48.59;99146.42;216739;1305;22565;-78
2023/04/05 15:22:42;;;;;;;4.90;2.40;;;;;;;6.47;48.54;99148.29;216967;1283;22736;-78
2023/04/05 15:28:06;;;;;;;3.20;2.40;;;;;;;6.26;47.95;99150.29;216809;1305;24781;-78
2023/04/05 15:33:08;;;;;;;3.60;2.10;;;;;;;6.07;48.31;99150.41;216874;1302;22665;-77
2023/04/05 15:38:34;;;;;;;3.00;2.20;;;;;;;5.87;48.86;99147.98;217020;1305;24251;-78
2023/04/05 15:43:38;;;;;;;2.90;1.80;;;;;;;5.69;49.17;99147.28;216877;1306;22556;-78
2023/04/05 15:48:43;;;;;;;4.80;1.60;;;;;;;5.57;48.87;99146.51;217695;1302;22591;-78
2023/04/05 15:53:48;;;;;;;2.30;1.70;;;;;;;5.51;48.86;99148.30;218132;1299;24330;-78
2023/04/05 15:59:04;;;;;;;;;;;;;;;;;;;;;
2023/04/05 16:04:14;;;;;;;3.80;1.90;;;;;;;5.39;48.85;99146.35;218175;1299;22606;-78
2023/04/05 16:09:17;;;;;;;3.10;2.00;;;;;;;5.33;49.10;99143.73;218078;1299;22796;-77
2023/04/05 16:14:43;;;;;;;2.40;1.70;;;;;;;5.25;49.41;99141.68;218078;1300;22601;-78
2023/04/05 16:19:46;;;;;;;3.20;2.10;;;;;;;5.10;49.70;99143.65;217832;1302;22550;-78
2023/04/05 16:24:52;;;;;;;3.30;1.90;;;;;;;4.94;50.30;99142.55;217915;1296;24836;-77
2023/04/05 16:29:57;;;;;;;2.80;1.80;;;;;;;4.79;50.65;99147.30;217855;1299;22609;-77
2023/04/05 16:35:00;;;;;;;5.00;2.70;;;;;;;4.65;50.92;99147.00;218024;1299;22552;-78
2023/04/05 16:40:23;;;;;;;3.40;2.20;;;;;;;4.53;51.16;99153.85;217714;1302;23780;-78
2023/04/05 16:45:32;;;;;;;3.30;2.40;;;;;;;4.41;51.52;99153.61;217716;1302;22600;-78
2023/04/05 16:50:38;;;;;;;4.70;2.70;;;;;;;4.25;51.85;99154.02;217554;1287;24236;-77
2023/04/05 16:55:50;;;;;;;7.10;3.60;;;;;;;4.08;51.69;99160.95;217761;1302;22545;-79
2023/04/05 17:01:06;;;;;;;3.10;2.30;;;;;;;3.90;51.54;99161.52;217957;1302;22543;-77
2023/04/05 17:06:27;;;;;;;4.40;2.40;;;;;;;3.74;51.50;99163.98;217719;1302;22842;-78
2023/04/05 17:11:30;;;;;;;4.30;2.70;;;;;;;3.58;51.52;99167.36;217931;1279;23057;-78
2023/04/05 17:16:35;;;;;;;8.00;4.30;;;;;;;3.42;51.71;99166.98;217929;1299;22549;-77
2023/04/05 17:21:44;;;;;;;16.40;7.50;;;;;;;3.25;52.09;99166.17;217594;1302;22633;-78
2023/04/05 17:26:55;;;;;;;17.90;9.50;;;;;;;3.07;52.55;99172.11;218003;1299;22549;-78
2023/04/05 17:31:58;;;;;;;17.20;9.70;;;;;;;2.89;52.72;99170.33;218061;1297;22677;-78
2023/04/05 17:37:00;;;;;;;19.20;10.20;;;;;;;2.72;53.11;99172.85;217773;1302;24504;-78
2023/04/05 17:42:08;;;;;;;23.80;11.10;;;;;;;2.54;53.36;99175.92;217828;1296;24279;-77
2023/04/05 17:47:14;;;;;;;24.80;11.70;;;;;;;2.37;54.00;99187.36;217875;1296;24285;-78
2023/04/05 17:52:29;;;;;;;32.40;16.20;;;;;;;2.22;54.15;99191.60;217914;1300;24141;-78
2023/04/05 17:57:47;;;;;;;18.90;10.80;;;;;;;2.05;54.65;99193.65;218161;1300;23967;-78
2023/04/05 18:03:10;;;;;;;;;;;;;;;;;;;;;
2023/04/05 18:08:17;;;;;;;19.10;10.70;;;;;;;1.79;55.06;99204.65;218227;1302;22686;-78
2023/04/05 18:13:20;;;;;;;15.10;8.60;;;;;;;1.69;55.60;99208.56;218136;1299;23321;-78
2023/04/05 18:18:23;;;;;;;11.50;7.50;;;;;;;1.61;55.40;99210.59;217670;1302;22563;-78
2023/04/05 18:23:26;;;;;;;11.10;6.50;;;;;;;1.53;55.48;99213.95;217790;1296;25265;-79
2023/04/05 18:28:31;;;;;;;11.90;7.10;;;;;;;1.46;55.91;99214.71;218003;1302;24262;-78
2023/04/05 18:33:33;;;;;;;11.50;7.90;;;;;;;1.42;56.21;99216.79;217748;1302;22555;-77
2023/04/05 18:38:38;;;;;;;10.90;7.20;;;;;;;1.37;56.40;99220.14;217842;1299;26412;-78
2023/04/05 18:43:40;;;;;;;14.60;8.00;;;;;;;1.32;56.42;99222.61;218100;1299;23209;-78
2023/04/05 18:48:43;;;;;;;13.00;7.40;;;;;;;1.28;56.78;99220.11;217839;1302;22618;-78
2023/04/05 18:53:45;;;;;;;11.90;7.70;;;;;;;1.26;56.37;99225.34;218187;1299;24325;-78
2023/04/05 18:58:49;;;;;;;13.40;8.70;;;;;;;1.22;57.11;99222.31;217591;1302;22567;-78
2023/04/05 19:03:51;;;;;;;14.50;9.00;;;;;;;1.18;57.06;99224.55;217732;1302;22918;-78
2023/04/05 19:08:53;;;;;;;14.40;8.40;;;;;;;1.15;57.23;99224.63;218071;1299;22567;-78
2023/04/05 19:13:58;;;;;;;17.70;9.70;;;;;;;1.13;57.24;99224.92;217827;1302;24504;-78
2023/04/05 19:19:04;;;;;;;14.30;9.40;;;;;;;1.10;57.04;99224.63;217661;1302;22943;-78
2023/04/05 19:24:12;;;;;;;17.40;10.40;;;;;;;1.03;57.45;99224.11;218269;1299;24278;-77
2023/04/05 19:29:15;;;;;;;19.80;10.10;;;;;;;0.96;57.46;99226.04;218149;1302;22557;-78
2023/04/05 19:34:18;;;;;;;18.20;10.90;;;;;;;0.87;57.53;99223.79;217667;1302;22554;-78
2023/04/05 19:39:24;;;;;;;20.90;12.90;;;;;;;0.80;57.64;99221.75;217871;1299;24157;-78
2023/04/05 19:44:53;;;;;;;24.80;14.40;;;;;;;0.74;57.80;99219.77;217760;1302;25372;-76
2023/04/05 19:49:59;;;;;;;24.20;13.40;;;;;;;0.70;57.89;99220.57;217937;1302;24284;-78
2023/04/05 19:55:26;;;;;;;25.30;13.60;;;;;;;0.71;58.06;99217.40;217538;1302;22681;-78
2023/04/05 20:00:38;;;;;;;37.50;18.40;;;;;;;0.70;57.93;99215.52;217959;1298;25449;-78
2023/04/05 20:05:45;;;;;;;32.60;18.00;;;;;;;0.67;58.15;99215.45;218162;1302;22942;-78
2023/04/05 20:10:50;;;;;;;32.20;18.10;;;;;;;0.62;58.37;99211.10;217902;1299;22631;-78
2023/04/05 20:15:54;;;;;;;35.80;18.50;;;;;;;0.58;58.23;99208.84;217729;1298;23102;-77
2023/04/05 20:20:56;;;;;;;37.80;20.60;;;;;;;0.55;58.26;99207.36;217726;1299;22621;-77
2023/04/05 20:25:59;;;;;;;40.90;21.30;;;;;;;0.53;58.61;99206.10;217746;1302;24330;-78
2023/04/05 20:31:03;;;;;;;38.70;20.70;;;;;;;0.51;58.49;99204.72;217709;1302;25430;-78
2023/04/05 20:36:11;;;;;;;36.90;19.90;;;;;;;0.43;58.76;99203.73;217961;1302;22549;-78
2023/04/05 20:41:16;;;;;;;62.80;29.30;;;;;;;0.34;59.08;99203.86;217643;1299;25328;-78
2023/04/05 20:46:21;;;;;;;37.60;20.80;;;;;;;0.22;59.31;99203.38;217760;1302;23662;-78
2023/04/05 20:51:24;;;;;;;44.00;25.00;;;;;;;0.09;59.53;99202.98;217651;1302;22560;-78
2023/04/05 20:56:27;;;;;;;36.10;21.90;;;;;;;-0.03;59.93;99201.55;217972;1300;22556;-77
2023/04/05 21:01:41;;;;;;;38.80;21.70;;;;;;;-0.12;60.06;99200.50;217556;1302;22571;-77
2023/04/05 21:06:43;;;;;;;39.90;22.50;;;;;;;-0.20;60.44;99205.59;217662;1302;22750;-78
2023/04/05 21:11:46;;;;;;;37.40;21.50;;;;;;;-0.25;60.30;99201.78;217829;1302;24237;-78
2023/04/05 21:16:49;;;;;;;39.80;21.00;;;;;;;-0.27;60.82;99197.91;217682;1301;23889;-78
2023/04/05 21:21:51;;;;;;;43.20;24.30;;;;;;;-0.29;60.85;99197.39;217725;1301;24233;-78
2023/04/05 21:26:55;;;;;;;44.00;24.90;;;;;;;-0.36;61.11;99195.27;217466;1302;24418;-77
2023/04/05 21:32:03;;;;;;;57.70;28.80;;;;;;;-0.45;60.79;99194.90;217724;1302;23897;-78
2023/04/05 21:37:09;;;;;;;54.10;28.00;;;;;;;-0.57;61.30;99197.34;217512;1302;22621;-78
2023/04/05 21:42:12;;;;;;;55.90;27.40;;;;;;;-0.70;61.46;99193.75;217843;1298;22571;-77
2023/04/05 21:47:34;;;;;;;53.00;30.10;;;;;;;-0.84;62.33;99199.36;217756;1302;24275;-79
2023/04/05 21:52:41;;;;;;;62.00;30.60;;;;;;;-0.97;62.49;99198.04;217954;1302;22575;-77
2023/04/05 21:57:44;;;;;;;57.20;28.00;;;;;;;-1.09;63.27;99194.39;217765;1302;24260;-77
2023/04/05 22:02:47;;;;;;;55.00;26.80;;;;;;;-1.21;63.48;99199.64;217654;1302;22605;-77
2023/04/05 22:07:52;;;;;;;55.20;27.50;;;;;;;-1.31;63.96;99192.95;217858;1302;25643;-79
2023/04/05 22:12:55;;;;;;;48.90;26.20;;;;;;;-1.40;64.28;99196.98;217866;1302;22566;-78
2023/04/05 22:17:58;;;;;;;45.20;24.80;;;;;;;-1.46;64.86;99199.30;217803;1301;22583;-76
2023/04/05 22:23:01;;;;;;;47.90;25.60;;;;;;;-1.50;65.32;99199.35;217696;1302;141072;-78
2023/04/05 22:28:03;;;;;;;46.70;26.20;;;;;;;-1.54;65.39;99204.48;217516;1295;22650;-78
2023/04/05 22:33:07;;;;;;;51.70;28.80;;;;;;;-1.59;66.01;99206.02;217461;1302;23463;-78
2023/04/05 22:38:10;;;;;;;58.00;29.70;;;;;;;-1.63;66.10;99208.36;217844;1299;23961;-78
2023/04/05 22:43:13;;;;;;;51.90;27.80;;;;;;;-1.69;66.01;99202.91;217814;1302;25629;-78
2023/04/05 22:48:15;;;;;;;55.30;29.30;;;;;;;-1.74;66.29;99199.95;217706;1302;25530;-78
2023/04/05 22:53:18;;;;;;;58.40;30.00;;;;;;;-1.80;66.34;99200.33;217901;1298;25621;-77
2023/04/05 22:58:31;;;;;;;58.00;30.10;;;;;;;-1.86;66.82;99200.52;217756;1300;22691;-77
2023/04/05 23:03:40;;;;;;;53.10;29.10;;;;;;;-1.90;67.10;99200.61;217458;1280;22735;-76
2023/04/05 23:08:47;;;;;;;54.40;30.70;;;;;;;-1.93;67.20;99196.30;217664;1302;22556;-78
2023/04/05 23:14:17;;;;;;;55.00;28.90;;;;;;;-1.93;66.87;99196.02;217567;1302;22562;-80
2023/04/05 23:19:21;;;;;;;56.20;28.80;;;;;;;-1.95;67.04;99199.42;217677;1302;25526;-79
2023/04/05 23:24:23;;;;;;;59.30;31.10;;;;;;;-1.98;67.59;99193.40;217782;1299;22602;-77
2023/04/05 23:29:29;;;;;;;61.90;32.30;;;;;;;-2.02;67.77;99189.88;217428;1301;22496;-78
2023/04/05 23:34:31;;;;;;;58.40;31.20;;;;;;;-2.07;67.81;99193.11;217781;1299;23333;-78
2023/04/05 23:39:34;;;;;;;54.80;30.20;;;;;;;-2.11;67.81;99192.72;217739;1302;22566;-77
2023/04/05 23:44:38;;;;;;;50.10;26.80;;;;;;;-2.15;67.84;99179.98;217697;1300;24132;-78
2023/04/05 23:49:42;;;;;;;52.30;28.60;;;;;;;-2.16;68.26;99179.17;217813;1300;24235;-78